Time;durP1;ratioP1;P1;durP2;ratioP2;P2;SDS_P1;SDS_P2;PMS_P1;PMS_P2;Temp;Humidity;BMP_temperature;BMP_pressure;BME280_temperature;BME280_humidity;BME280_pressure;Samples;Min_cycle;Max_cycle;Signal;HPM_P1;HPM_P2
2021/01/31 00:00:36;;;;;;;35.08;11.45;;;;;;;-3.10;80.91;99833.21;1613793;87;21882;-76
2021/01/31 00:03:06;;;;;;;28.85;11.33;;;;;;;-3.08;80.96;99834.11;1608125;87;21238;-76
2021/01/31 00:05:33;;;;;;;31.37;10.72;;;;;;;-3.06;80.83;99836.67;1614622;87;21207;-76
2021/01/31 00:07:59;;;;;;;22.13;9.20;;;;;;;-3.05;80.95;99842.18;1607545;87;21230;-76
2021/01/31 00:10:29;;;;;;;24.72;10.18;;;;;;;-3.01;80.99;99842.30;1615953;87;21210;-76
2021/01/31 00:12:57;;;;;;;20.35;8.08;;;;;;;-2.98;80.94;99840.67;1605330;87;21322;-76
2021/01/31 00:15:28;;;;;;;21.62;8.85;;;;;;;-2.96;80.94;99844.95;1613646;87;21533;-76
2021/01/31 00:17:56;;;;;;;21.27;9.48;;;;;;;-2.95;80.87;99843.28;1605958;87;21234;-76
2021/01/31 00:20:25;;;;;;;21.50;9.58;;;;;;;-2.92;80.97;99850.94;1610314;87;21254;-76
2021/01/31 00:22:51;;;;;;;22.30;9.38;;;;;;;-2.93;80.92;99846.30;1609729;86;21726;-76
2021/01/31 00:25:18;;;;;;;15.80;7.87;;;;;;;-2.90;80.82;99853.96;1617458;87;21251;-76
2021/01/31 00:27:45;;;;;;;13.75;7.37;;;;;;;-2.90;80.85;99855.63;1624684;87;21274;-76
2021/01/31 00:30:28;;;;;;;14.20;7.47;;;;;;;-2.88;80.94;99856.13;1609904;87;21673;-76
2021/01/31 00:32:54;;;;;;;12.90;8.08;;;;;;;-2.88;80.79;99855.27;1609862;87;21283;-77
2021/01/31 00:35:25;;;;;;;12.43;6.37;;;;;;;-2.88;80.81;99857.38;1614687;85;21239;-77
2021/01/31 00:37:52;;;;;;;14.60;7.30;;;;;;;-2.86;80.87;99849.84;1622427;87;21221;-77
2021/01/31 00:40:19;;;;;;;16.00;7.17;;;;;;;-2.84;80.91;99846.94;1631444;87;21227;-77
2021/01/31 00:42:46;;;;;;;13.40;7.28;;;;;;;-2.81;80.90;99853.34;1625278;87;21223;-77
2021/01/31 00:45:15;;;;;;;;;;;;;;;-2.81;80.90;99849.13;1624420;87;21208;-77
2021/01/31 00:47:42;;;;;;;13.70;7.20;;;;;;;-2.80;80.76;99852.11;1616373;87;20657;-77
2021/01/31 00:50:14;;;;;;;;;;;;;;;-2.82;80.77;99847.83;1623931;87;22465;-77
2021/01/31 00:52:40;;;;;;;14.45;7.20;;;;;;;-2.81;80.85;99851.66;1629256;86;20283;-77
2021/01/31 00:55:08;;;;;;;12.33;7.00;;;;;;;-2.81;80.75;99856.72;1633205;85;21204;-77
2021/01/31 00:57:34;;;;;;;14.90;7.67;;;;;;;-2.87;80.61;99855.30;1627675;87;21208;-77
2021/01/31 01:00:03;;;;;;;10.50;6.28;;;;;;;-2.87;80.73;99859.50;1624997;87;21228;-77
2021/01/31 01:02:30;;;;;;;14.50;7.35;;;;;;;-2.88;80.66;99859.05;1623645;87;22338;-77
2021/01/31 01:04:56;;;;;;;;;;;;;;;-2.87;80.80;99854.45;1627335;87;21549;-77
2021/01/31 01:07:22;;;;;;;;;;;;;;;-2.85;80.76;99856.61;1633410;87;20746;-77
2021/01/31 01:09:48;;;;;;;13.25;6.33;;;;;;;-2.84;80.78;99855.79;1620213;87;20233;-77
2021/01/31 01:12:14;;;;;;;13.22;6.35;;;;;;;-2.85;80.70;99843.95;1629698;87;21219;-77
2021/01/31 01:14:41;;;;;;;10.25;6.67;;;;;;;-2.83;80.67;99847.38;1621040;87;21247;-77
2021/01/31 01:17:07;;;;;;;14.30;6.92;;;;;;;-2.83;80.65;99842.33;1620807;87;21220;-77
2021/01/31 01:19:33;;;;;;;14.85;7.58;;;;;;;-2.85;80.61;99841.43;1616405;87;21232;-77
2021/01/31 01:22:00;;;;;;;17.82;7.97;;;;;;;-2.85;80.72;99845.22;1622827;87;21665;-77
2021/01/31 01:24:26;;;;;;;18.52;9.03;;;;;;;-2.83;80.66;99843.18;1620915;87;21668;-76
2021/01/31 01:26:52;;;;;;;12.70;7.47;;;;;;;-2.82;80.66;99841.09;1622478;87;22367;-76
2021/01/31 01:29:19;;;;;;;18.62;8.13;;;;;;;-2.81;80.58;99838.16;1634545;85;21224;-76
2021/01/31 01:31:45;;;;;;;16.65;8.38;;;;;;;-2.81;80.57;99843.22;1627848;87;21216;-76
2021/01/31 01:34:11;;;;;;;13.68;6.60;;;;;;;-2.80;80.60;99846.20;1621579;85;21216;-76
2021/01/31 01:36:38;;;;;;;13.70;6.78;;;;;;;-2.78;80.60;99840.77;1613189;87;21623;-76
2021/01/31 01:39:04;;;;;;;17.42;7.12;;;;;;;-2.81;80.43;99836.48;1613453;87;21620;-76
2021/01/31 01:41:39;;;;;;;;;;;;;;;-2.81;80.53;99834.36;1610081;87;21219;-76
2021/01/31 01:44:05;;;;;;;11.60;5.45;;;;;;;-2.83;80.43;99826.73;1623065;87;20282;-76
2021/01/31 01:46:40;;;;;;;10.68;5.67;;;;;;;-2.83;80.51;99829.27;1607306;87;21167;-76
2021/01/31 01:49:20;;;;;;;8.88;5.40;;;;;;;-2.84;80.48;99826.70;1608479;87;21235;-76
2021/01/31 01:51:51;;;;;;;10.10;5.03;;;;;;;-2.89;80.38;99822.79;1619407;87;21949;-76
2021/01/31 01:54:28;;;;;;;11.48;5.55;;;;;;;-2.92;80.45;99823.98;1610953;87;21659;-76
2021/01/31 01:57:00;;;;;;;10.18;5.67;;;;;;;-2.95;80.52;99818.84;1607708;87;21283;-76
2021/01/31 01:59:33;;;;;;;10.32;5.75;;;;;;;-2.97;80.42;99812.03;1591864;87;21262;-76
2021/01/31 02:02:25;;;;;;;10.23;5.67;;;;;;;-3.07;80.24;99802.95;1613923;87;21206;-76
2021/01/31 02:04:52;;;;;;;8.53;5.60;;;;;;;-3.13;80.29;99806.61;1616989;87;21265;-76
2021/01/31 02:07:19;;;;;;;9.85;6.17;;;;;;;-3.20;80.29;99800.09;1619526;87;21640;-76
2021/01/31 02:09:48;;;;;;;13.60;6.53;;;;;;;-3.24;80.36;99802.09;1611694;87;21266;-76
2021/01/31 02:12:18;;;;;;;8.30;5.60;;;;;;;-3.29;80.31;99804.91;1618286;87;21219;-76
2021/01/31 02:14:46;;;;;;;10.23;5.72;;;;;;;-3.35;80.26;99804.34;1603538;88;21704;-76
2021/01/31 02:17:40;;;;;;;11.57;5.92;;;;;;;-3.41;80.30;99806.30;1618712;87;21248;-76
2021/01/31 02:20:34;;;;;;;10.28;5.72;;;;;;;-3.47;80.31;99811.59;1607185;87;21215;-76
2021/01/31 02:23:49;;;;;;;8.60;5.90;;;;;;;-3.51;80.40;99818.23;1617130;87;21703;-75
2021/01/31 02:26:32;;;;;;;8.60;5.87;;;;;;;-3.56;80.36;99809.67;1606877;87;21218;-75
2021/01/31 02:29:12;;;;;;;10.98;5.90;;;;;;;-3.58;80.44;99816.76;1598143;87;21222;-75
2021/01/31 02:32:05;;;;;;;7.42;5.25;;;;;;;-3.58;80.53;99819.28;1591368;87;21532;-76
2021/01/31 02:34:39;;;;;;;11.93;6.47;;;;;;;-3.58;80.54;99815.49;1606648;87;21211;-75
2021/01/31 02:37:26;;;;;;;9.88;5.85;;;;;;;-3.60;80.48;99819.24;1629888;87;21240;-75
2021/01/31 02:40:03;;;;;;;8.30;5.72;;;;;;;-3.62;80.49;99819.60;1617325;87;21204;-75
2021/01/31 02:42:38;;;;;;;7.67;5.83;;;;;;;-3.62;80.49;99823.39;1632705;87;21189;-75
2021/01/31 02:45:19;;;;;;;8.23;5.70;;;;;;;-3.61;80.55;99817.53;1621705;87;22075;-75
2021/01/31 02:47:56;;;;;;;8.13;5.90;;;;;;;-3.59;80.45;99818.83;1623665;87;21676;-76
2021/01/31 02:50:28;;;;;;;10.38;5.55;;;;;;;-3.58;80.53;99817.61;1626274;87;21216;-76
2021/01/31 02:53:02;;;;;;;8.13;5.08;;;;;;;-3.57;80.55;99815.53;1631656;87;21276;-75
2021/01/31 02:55:42;;;;;;;10.35;5.30;;;;;;;-3.55;80.55;99818.10;1628026;87;21231;-76
2021/01/31 02:58:23;;;;;;;7.97;5.42;;;;;;;-3.52;80.48;99818.19;1622120;87;21192;-76
2021/01/31 03:01:12;;;;;;;7.20;4.95;;;;;;;-3.49;80.55;99812.81;1628274;87;21170;-75
2021/01/31 03:03:46;;;;;;;6.65;4.55;;;;;;;-3.46;80.54;99805.31;1624781;87;21184;-76
2021/01/31 03:06:16;;;;;;;11.12;6.35;;;;;;;-3.43;80.50;99814.24;1622154;87;21165;-76
2021/01/31 03:08:48;;;;;;;9.23;5.20;;;;;;;-3.43;80.42;99814.65;1622192;87;21145;-76
2021/01/31 03:11:25;;;;;;;8.48;4.95;;;;;;;-3.40;80.32;99814.73;1626858;87;21911;-76
2021/01/31 03:14:01;;;;;;;8.95;5.50;;;;;;;-3.40;80.34;99813.47;1619419;87;21144;-76
2021/01/31 03:16:47;;;;;;;8.70;5.37;;;;;;;-3.38;80.44;99817.75;1622087;87;21160;-76
2021/01/31 03:19:37;;;;;;;7.53;5.08;;;;;;;-3.34;80.43;99809.84;1628510;87;21574;-76
2021/01/31 03:22:08;;;;;;;7.90;4.95;;;;;;;-3.33;80.39;99814.08;1623132;87;21164;-76
2021/01/31 03:24:40;;;;;;;9.80;5.08;;;;;;;-3.29;80.41;99816.28;1634735;87;21570;-76
2021/01/31 03:27:16;;;;;;;8.15;5.53;;;;;;;-3.26;80.44;99812.58;1628938;87;21149;-76
2021/01/31 03:29:43;;;;;;;9.18;5.53;;;;;;;-3.24;80.51;99818.53;1629055;86;21156;-76
2021/01/31 03:32:32;;;;;;;7.97;5.47;;;;;;;-3.23;80.37;99817.30;1629378;87;21200;-76
2021/01/31 03:35:19;;;;;;;7.22;5.30;;;;;;;-3.20;80.48;99819.91;1617606;87;21203;-76
2021/01/31 03:37:55;;;;;;;9.80;5.83;;;;;;;-3.17;80.45;99821.26;1626369;86;21278;-76
2021/01/31 03:40:24;;;;;;;9.73;6.33;;;;;;;-3.14;80.40;99821.34;1607501;88;21228;-75
2021/01/31 03:42:51;;;;;;;8.58;6.20;;;;;;;-3.15;80.38;99820.03;1628125;86;21216;-76
2021/01/31 03:45:25;;;;;;;10.30;6.33;;;;;;;-3.12;80.33;99821.38;1631990;86;21215;-76
2021/01/31 03:48:11;;;;;;;8.53;5.47;;;;;;;-3.13;80.33;99824.31;1628891;86;21223;-76
2021/01/31 03:50:38;;;;;;;;;;;;;;;-3.11;80.27;99824.32;1631448;86;22296;-75
2021/01/31 03:53:04;;;;;;;9.00;5.92;;;;;;;-3.12;80.22;99828.52;1628320;86;20609;-75
2021/01/31 03:55:31;;;;;;;9.60;6.42;;;;;;;-3.12;80.30;99828.97;1635865;86;21257;-75
2021/01/31 03:58:01;;;;;;;10.75;6.28;;;;;;;-3.11;80.37;99836.97;1628296;86;21223;-75
2021/01/31 04:00:38;;;;;;;9.08;6.10;;;;;;;-3.08;80.39;99833.25;1627010;86;21247;-75
2021/01/31 04:03:18;;;;;;;12.68;6.87;;;;;;;-3.09;80.35;99828.60;1627147;86;21232;-75
2021/01/31 04:05:56;;;;;;;9.70;6.70;;;;;;;-3.08;80.40;99823.14;1625864;86;21255;-75
2021/01/31 04:08:24;;;;;;;8.70;6.33;;;;;;;-3.07;80.33;99820.65;1625730;86;21236;-76
2021/01/31 04:10:51;;;;;;;10.10;6.47;;;;;;;-3.08;80.27;99820.61;1640294;86;21208;-76
2021/01/31 04:13:20;;;;;;;11.12;6.45;;;;;;;-3.10;80.27;99823.50;1633246;86;21215;-76
2021/01/31 04:15:53;;;;;;;9.40;6.12;;;;;;;-3.13;80.17;99817.14;1631036;85;21247;-76
2021/01/31 04:18:22;;;;;;;13.43;6.33;;;;;;;-3.15;80.21;99814.98;1635818;86;21208;-76
2021/01/31 04:20:49;;;;;;;8.30;5.65;;;;;;;-3.17;80.21;99813.67;1617935;86;21619;-76
2021/01/31 04:23:17;;;;;;;12.45;6.47;;;;;;;-3.19;80.19;99819.50;1631775;86;21280;-76
2021/01/31 04:25:44;;;;;;;11.33;6.58;;;;;;;-3.21;80.20;99821.14;1639188;86;21239;-76
2021/01/31 04:28:15;;;;;;;10.85;6.83;;;;;;;-3.25;80.13;99821.87;1627760;86;22955;-76
2021/01/31 04:30:44;;;;;;;12.68;6.92;;;;;;;-3.27;80.18;99827.30;1638629;86;21629;-76
2021/01/31 04:33:12;;;;;;;10.15;6.30;;;;;;;-3.28;80.24;99827.70;1630721;86;21240;-75
2021/01/31 04:35:38;;;;;;;11.95;7.03;;;;;;;-3.29;80.21;99833.98;1626992;86;21240;-75
2021/01/31 04:38:05;;;;;;;11.30;6.55;;;;;;;-3.30;80.27;99839.84;1621458;87;21805;-75
2021/01/31 04:40:33;;;;;;;11.00;7.17;;;;;;;-3.32;80.22;99844.86;1623870;87;21650;-76
2021/01/31 04:43:02;;;;;;;10.03;6.55;;;;;;;-3.31;80.32;99845.72;1623210;87;21284;-76
2021/01/31 04:45:29;;;;;;;11.12;7.83;;;;;;;-3.32;80.36;99846.13;1622247;85;21224;-77
2021/01/31 04:48:28;;;;;;;11.80;7.15;;;;;;;-3.31;80.37;99850.77;1619208;87;21212;-77
2021/01/31 04:50:59;;;;;;;11.28;6.80;;;;;;;-3.29;80.40;99851.27;1618943;87;21264;-77
2021/01/31 04:53:40;;;;;;;15.08;8.20;;;;;;;-3.28;80.42;99855.91;1619626;87;21228;-77
2021/01/31 04:56:23;;;;;;;15.15;7.95;;;;;;;-3.28;80.47;99854.24;1618184;87;21701;-77
2021/01/31 04:58:54;;;;;;;15.28;7.60;;;;;;;-3.24;80.45;99858.98;1618822;87;21207;-76
2021/01/31 05:01:32;;;;;;;13.00;7.50;;;;;;;-3.23;80.46;99856.89;1596370;88;21502;-76
2021/01/31 05:04:06;;;;;;;17.62;8.93;;;;;;;-3.21;80.47;99857.80;1620230;87;21160;-76
2021/01/31 05:06:40;;;;;;;16.17;7.83;;;;;;;-3.20;80.45;99857.84;1619373;87;21269;-76
2021/01/31 05:09:17;;;;;;;12.00;7.75;;;;;;;-3.20;80.42;99858.24;1619994;88;21201;-76
2021/01/31 05:12:00;;;;;;;19.02;9.18;;;;;;;-3.20;80.38;99862.03;1619897;88;21965;-77
2021/01/31 05:14:44;;;;;;;14.83;8.28;;;;;;;-3.21;80.42;99867.50;1613288;87;21252;-77
2021/01/31 05:17:13;;;;;;;15.18;7.83;;;;;;;-3.20;80.39;99867.09;1618536;87;21248;-77
2021/01/31 05:19:39;;;;;;;14.55;8.93;;;;;;;-3.20;80.42;99867.09;1620844;87;21246;-77
2021/01/31 05:22:06;;;;;;;15.48;8.98;;;;;;;-3.21;80.44;99864.11;1598587;87;21152;-77
2021/01/31 05:24:32;;;;;;;17.30;8.18;;;;;;;-3.23;80.36;99872.06;1620674;87;21170;-77
2021/01/31 05:27:01;;;;;;;;;;;;;;;-3.25;80.34;99872.02;1620999;87;21165;-77
2021/01/31 05:29:32;;;;;;;18.30;8.03;;;;;;;-3.27;80.30;99872.38;1617107;87;20258;-77
2021/01/31 05:32:10;;;;;;;14.47;7.17;;;;;;;-3.31;80.25;99869.73;1616673;87;21302;-76
2021/01/31 05:34:47;;;;;;;16.57;8.38;;;;;;;-3.36;80.26;99879.72;1620185;87;21149;-76
2021/01/31 05:37:21;;;;;;;15.83;7.70;;;;;;;-3.37;80.33;99872.95;1616617;87;21220;-76
2021/01/31 05:40:07;;;;;;;12.50;6.62;;;;;;;-3.41;80.30;99878.73;1597451;87;21236;-76
2021/01/31 05:42:41;;;;;;;15.63;7.50;;;;;;;-3.42;80.29;99882.92;1617894;87;21192;-75
2021/01/31 05:45:21;;;;;;;14.80;7.40;;;;;;;-3.47;80.32;99887.41;1619019;87;21697;-76
2021/01/31 05:47:50;;;;;;;18.65;8.03;;;;;;;-3.53;80.22;99891.02;1637033;87;21220;-76
2021/01/31 05:50:38;;;;;;;12.90;7.17;;;;;;;-3.57;80.27;99893.00;1620674;86;21216;-76
2021/01/31 05:53:32;;;;;;;13.18;7.50;;;;;;;-3.62;80.21;99894.13;1622160;87;21674;-76
2021/01/31 05:56:25;;;;;;;15.70;7.30;;;;;;;-3.74;80.07;99896.33;1613527;87;21215;-76
2021/01/31 05:59:10;;;;;;;14.55;7.80;;;;;;;-3.83;80.17;99905.75;1626588;87;21200;-77
2021/01/31 06:02:01;;;;;;;14.95;7.37;;;;;;;-3.90;80.15;99896.69;1615032;87;21228;-76
2021/01/31 06:04:28;;;;;;;13.78;7.00;;;;;;;-3.98;80.14;99896.45;1631775;87;21240;-76
2021/01/31 06:07:13;;;;;;;12.65;7.45;;;;;;;-4.03;80.23;99897.98;1626306;86;21228;-76
2021/01/31 06:09:47;;;;;;;15.80;7.27;;;;;;;-4.06;80.25;99900.00;1634030;87;21217;-76
2021/01/31 06:12:21;;;;;;;10.70;6.92;;;;;;;-4.10;80.31;99904.91;1616163;87;21240;-76
2021/01/31 06:15:25;;;;;;;13.08;7.00;;;;;;;-4.17;80.11;99907.67;1590885;88;21534;-76
2021/01/31 06:18:02;;;;;;;13.98;6.97;;;;;;;-4.26;80.06;99909.05;1598219;88;21227;-76
2021/01/31 06:20:36;;;;;;;10.95;6.72;;;;;;;-4.32;80.21;99911.38;1619120;87;21285;-76
2021/01/31 06:23:05;;;;;;;16.42;6.62;;;;;;;-4.37;80.10;99916.28;1619948;87;21196;-76
2021/01/31 06:25:40;;;;;;;15.68;7.53;;;;;;;-4.45;80.17;99913.50;1618885;87;21528;-76
2021/01/31 06:28:14;;;;;;;12.65;6.55;;;;;;;-4.49;80.24;99916.73;1619237;87;21247;-76
2021/01/31 06:31:19;;;;;;;13.53;7.28;;;;;;;-4.51;80.22;99916.23;1619229;87;21634;-76
2021/01/31 06:33:47;;;;;;;16.60;7.28;;;;;;;-4.54;80.26;99918.25;1607585;88;21284;-75
2021/01/31 06:36:24;;;;;;;14.15;6.80;;;;;;;-4.58;80.18;99921.88;1618946;87;21681;-75
2021/01/31 06:39:02;;;;;;;15.40;6.97;;;;;;;-4.62;80.24;99925.96;1618808;87;21228;-75
2021/01/31 06:41:58;;;;;;;14.03;6.80;;;;;;;-4.67;80.20;99929.59;1618685;87;21251;-75
2021/01/31 06:44:46;;;;;;;;;;;;;;;-4.71;80.13;99926.55;1624177;87;21248;-76
2021/01/31 06:47:35;;;;;;;16.23;7.58;;;;;;;-4.74;80.17;99929.36;1580477;89;20542;-76
2021/01/31 06:53:29;;;;;;;;;;;;;;;-4.81;80.32;99934.59;1513040;93;21330;-75
2021/01/31 06:56:34;;;;;;;14.73;6.40;;;;;;;-4.82;80.25;99940.84;1518859;93;20324;-75
2021/01/31 06:59:15;;;;;;;15.08;7.25;;;;;;;-4.84;80.16;99944.98;1504556;93;21302;-75
2021/01/31 07:02:10;;;;;;;14.18;7.85;;;;;;;-4.88;80.18;99941.50;1513001;93;21689;-76
2021/01/31 07:05:08;;;;;;;10.82;6.45;;;;;;;-4.88;80.22;99938.97;1507026;93;21801;-76
2021/01/31 07:08:09;;;;;;;13.85;7.33;;;;;;;-4.85;80.35;99941.60;1512321;93;21789;-76
2021/01/31 07:11:07;;;;;;;12.80;7.22;;;;;;;-4.78;80.39;99947.31;1519718;93;21763;-77
2021/01/31 07:14:12;;;;;;;13.40;6.53;;;;;;;-4.69;80.43;99947.63;1514285;93;21692;-75
2021/01/31 07:16:43;;;;;;;10.78;6.30;;;;;;;-4.53;80.53;99950.23;1519040;93;21292;-75
2021/01/31 07:19:32;;;;;;;11.18;6.30;;;;;;;-4.37;80.52;99947.41;1514384;93;21261;-75
2021/01/31 07:22:19;;;;;;;8.45;5.10;;;;;;;-4.25;80.44;99949.48;1514931;93;21288;-75
2021/01/31 07:25:12;;;;;;;13.05;5.92;;;;;;;-4.13;80.44;99958.68;1499966;93;21243;-75
2021/01/31 07:27:49;;;;;;;11.22;5.37;;;;;;;-4.05;80.40;99954.73;1564219;89;21194;-76
2021/01/31 07:30:31;;;;;;;10.35;5.70;;;;;;;-3.89;80.43;99960.27;1583020;89;21649;-76
2021/01/31 07:33:28;;;;;;;9.80;5.65;;;;;;;-3.72;80.44;99961.23;1583001;89;21535;-76
2021/01/31 07:36:32;;;;;;;15.53;6.10;;;;;;;-3.56;80.43;99960.41;1528083;93;21266;-76
2021/01/31 07:39:07;;;;;;;11.35;5.67;;;;;;;-3.36;80.29;99965.24;1525336;93;21675;-76
2021/01/31 07:41:35;;;;;;;8.65;5.80;;;;;;;-3.28;80.14;99962.08;1494231;94;21749;-76
2021/01/31 07:44:11;;;;;;;11.08;5.72;;;;;;;-3.26;80.08;99960.45;1496883;95;21347;-76
2021/01/31 07:46:38;;;;;;;12.70;6.10;;;;;;;-3.22;80.13;99966.91;1494261;95;21303;-76
2021/01/31 07:49:06;;;;;;;10.68;5.95;;;;;;;-3.18;80.19;99969.12;1496808;94;21901;-76
2021/01/31 07:51:38;;;;;;;7.90;5.25;;;;;;;-3.12;80.17;99967.59;1501154;94;21297;-76
2021/01/31 07:54:25;;;;;;;8.93;6.28;;;;;;;-3.08;80.18;99969.80;1528092;92;33917;-76
2021/01/31 07:56:59;;;;;;;9.63;6.12;;;;;;;-3.03;80.17;99978.37;1496153;95;21276;-74
2021/01/31 07:59:28;;;;;;;9.68;5.75;;;;;;;-2.99;80.18;99977.64;1517371;93;21725;-75
2021/01/31 08:01:56;;;;;;;8.83;5.67;;;;;;;-2.96;80.11;99974.34;1527669;93;22058;-75
2021/01/31 08:04:40;;;;;;;8.43;5.85;;;;;;;-2.95;80.08;99968.47;1495086;94;21250;-75
2021/01/31 08:07:08;;;;;;;11.22;5.92;;;;;;;-2.93;80.08;99981.61;1526984;93;21286;-75
2021/01/31 08:09:42;;;;;;;9.38;5.53;;;;;;;-2.90;80.06;99982.09;1517938;92;21407;-75
2021/01/31 08:12:14;;;;;;;7.97;5.78;;;;;;;-2.88;80.10;99983.86;1486522;95;21370;-76
2021/01/31 08:15:18;;;;;;;8.15;5.55;;;;;;;-2.87;80.03;99987.24;1540807;92;21735;-76
2021/01/31 08:17:57;;;;;;;10.75;6.37;;;;;;;-2.85;80.07;99981.82;1553314;90;21281;-76
2021/01/31 08:20:31;;;;;;;10.35;6.08;;;;;;;-2.79;80.17;99984.52;1534932;92;21303;-73
2021/01/31 08:23:05;;;;;;;6.85;5.25;;;;;;;-2.75;80.11;99992.23;1551544;92;21211;-73
2021/01/31 08:25:54;;;;;;;10.80;5.65;;;;;;;-2.69;80.27;99988.61;1523354;92;21217;-73
2021/01/31 08:28:28;;;;;;;9.90;6.17;;;;;;;-2.65;80.09;99992.08;1527534;93;21282;-72
2021/01/31 08:31:10;;;;;;;9.53;6.00;;;;;;;-2.71;80.01;99975.05;1520164;93;21256;-73
2021/01/31 08:33:39;;;;;;;10.38;5.28;;;;;;;-2.60;80.10;99994.73;1552302;92;21706;-73
2021/01/31 08:36:23;;;;;;;7.47;5.83;;;;;;;-2.55;80.11;99992.73;1547197;91;21234;-73
2021/01/31 08:38:55;;;;;;;10.60;6.50;;;;;;;-2.51;80.10;99992.41;1542032;92;21235;-72
2021/01/31 08:41:32;;;;;;;12.78;7.28;;;;;;;-2.46;80.07;99989.59;1546515;92;21760;-72
2021/01/31 08:44:12;;;;;;;9.83;6.20;;;;;;;-2.46;80.02;99998.05;1541792;92;21211;-72
2021/01/31 08:47:00;;;;;;;10.05;6.67;;;;;;;-2.45;79.98;99996.38;1547208;92;21231;-72
2021/01/31 08:49:26;;;;;;;13.78;7.25;;;;;;;-2.39;80.16;99996.53;1525809;93;21282;-72
2021/01/31 08:52:04;;;;;;;11.75;6.60;;;;;;;-2.33;80.17;99992.89;1526743;93;21221;-72
2021/01/31 08:54:30;;;;;;;10.23;6.60;;;;;;;-2.29;80.09;99997.22;1555228;91;21220;-72
2021/01/31 08:57:07;;;;;;;13.05;7.65;;;;;;;-2.27;80.02;99999.79;1553357;92;28392;-73
2021/01/31 08:59:48;;;;;;;15.53;7.00;;;;;;;-2.26;80.00;100001.09;1543432;92;21234;-73
2021/01/31 09:02:19;;;;;;;11.10;6.40;;;;;;;-2.26;80.00;100001.09;1549461;91;21730;-73
2021/01/31 09:04:59;;;;;;;11.48;6.55;;;;;;;-2.22;80.06;99993.16;1543103;92;21286;-73
2021/01/31 09:07:49;;;;;;;11.68;6.47;;;;;;;-2.14;80.21;100002.67;1550074;92;22411;-73
2021/01/31 09:10:35;;;;;;;11.12;6.90;;;;;;;-2.14;80.21;100002.67;1512891;93;21274;-73
2021/01/31 09:13:34;;;;;;;11.00;6.25;;;;;;;-2.09;79.98;100002.78;1530728;92;21669;-75
2021/01/31 09:16:25;;;;;;;14.63;7.12;;;;;;;-2.09;79.87;99998.98;1530458;91;21178;-76
2021/01/31 09:19:08;;;;;;;13.50;7.45;;;;;;;-2.03;79.98;99997.84;1550336;91;21173;-75
2021/01/31 09:21:35;;;;;;;11.78;6.87;;;;;;;-2.03;79.98;99997.84;1552741;91;22143;-76
2021/01/31 09:24:06;;;;;;;11.75;6.62;;;;;;;-2.02;79.84;100005.89;1550973;91;21146;-73
2021/01/31 09:26:32;;;;;;;14.18;7.08;;;;;;;-2.10;79.80;99989.27;1555515;92;21211;-72
2021/01/31 09:29:00;;;;;;;16.75;7.22;;;;;;;-1.96;79.97;99998.84;1536472;92;21167;-72
2021/01/31 09:31:28;;;;;;;12.28;7.12;;;;;;;-1.91;79.96;99993.08;1538836;92;21154;-75
2021/01/31 09:33:59;;;;;;;13.75;7.50;;;;;;;-1.79;79.97;100006.03;1552224;91;21203;-75
2021/01/31 09:36:35;;;;;;;14.18;7.30;;;;;;;-1.69;80.01;100002.90;1544882;92;21150;-75
2021/01/31 09:39:05;;;;;;;13.35;7.53;;;;;;;-1.61;79.94;99995.47;1547610;92;21233;-75
2021/01/31 09:41:33;;;;;;;13.83;7.03;;;;;;;-1.52;79.90;100000.72;1549039;92;21682;-75
2021/01/31 09:44:08;;;;;;;11.80;6.70;;;;;;;-1.47;79.81;100002.09;1550177;92;21198;-75
2021/01/31 09:46:36;;;;;;;11.37;6.83;;;;;;;-1.48;79.66;99999.11;1534582;92;21877;-75
2021/01/31 09:49:11;;;;;;;15.50;7.37;;;;;;;-1.42;79.88;100002.64;1525617;93;21610;-75
2021/01/31 09:51:38;;;;;;;10.43;6.55;;;;;;;-1.35;79.84;100004.90;1534776;92;21693;-75
2021/01/31 09:54:30;;;;;;;11.90;6.50;;;;;;;-1.30;79.71;100009.66;1524539;93;21679;-75
2021/01/31 09:57:02;;;;;;;10.65;6.05;;;;;;;-1.28;79.65;100006.75;1547638;92;21246;-76
2021/01/31 09:59:33;;;;;;;9.78;6.08;;;;;;;-1.28;79.63;100008.02;1528838;92;21303;-76
2021/01/31 10:02:08;;;;;;;14.83;7.10;;;;;;;-1.24;79.71;100009.80;1547893;92;21276;-75
2021/01/31 10:04:37;;;;;;;12.10;6.37;;;;;;;-1.19;79.70;100010.75;1552268;92;21662;-75
2021/01/31 10:07:10;;;;;;;12.10;6.80;;;;;;;-1.11;79.83;100011.77;1537194;92;21783;-74
2021/01/31 10:09:50;;;;;;;9.75;5.37;;;;;;;-1.00;79.94;100013.23;1554196;91;21214;-74
2021/01/31 10:12:34;;;;;;;10.20;5.97;;;;;;;-0.93;79.77;100004.92;1552213;90;21207;-75
2021/01/31 10:15:07;;;;;;;9.88;6.03;;;;;;;-0.93;79.59;100014.22;1549908;91;21250;-75
2021/01/31 10:17:45;;;;;;;9.85;5.60;;;;;;;-0.94;79.48;100007.02;1553342;90;21201;-75
2021/01/31 10:20:34;;;;;;;15.23;6.05;;;;;;;-0.95;79.48;100002.77;1528633;92;21783;-75
2021/01/31 10:23:18;;;;;;;10.50;6.10;;;;;;;-0.98;79.41;100006.52;1539898;91;21560;-76
2021/01/31 10:25:59;;;;;;;11.38;6.55;;;;;;;-0.96;79.56;100005.27;1538150;91;22045;-76
2021/01/31 10:28:36;;;;;;;13.08;7.15;;;;;;;-0.92;79.59;100009.17;1549823;91;21262;-76
2021/01/31 10:31:02;;;;;;;10.98;6.58;;;;;;;-0.88;79.53;100005.02;1533653;93;21229;-76
2021/01/31 10:33:51;;;;;;;12.90;6.97;;;;;;;-0.85;79.53;100002.13;1537072;91;21259;-76
2021/01/31 10:36:31;;;;;;;13.00;6.83;;;;;;;-0.82;79.54;99999.66;1537958;91;21239;-76
2021/01/31 10:39:12;;;;;;;11.50;7.42;;;;;;;-0.75;79.63;99995.14;1537930;91;21259;-76
2021/01/31 10:41:39;;;;;;;17.30;8.03;;;;;;;-0.63;79.70;99991.13;1555432;91;21581;-76
2021/01/31 10:44:10;;;;;;;13.48;7.97;;;;;;;-0.54;79.71;99992.16;1568790;89;371560;-76
2021/01/31 10:46:40;;;;;;;16.73;7.75;;;;;;;-0.43;79.74;99991.91;1609588;87;21124;-76
2021/01/31 10:49:07;;;;;;;13.38;7.30;;;;;;;-0.36;79.66;99997.54;1587996;90;21184;-76
2021/01/31 10:51:34;;;;;;;13.13;7.92;;;;;;;-0.30;79.56;99991.72;1614136;87;21189;-76
2021/01/31 10:54:04;;;;;;;12.40;7.53;;;;;;;-0.29;79.37;99990.89;1577231;90;21685;-76
2021/01/31 10:56:30;;;;;;;13.35;7.55;;;;;;;-0.31;79.35;99995.09;1601760;88;21179;-76
2021/01/31 10:58:57;;;;;;;14.45;8.75;;;;;;;-0.30;79.34;99990.86;1632638;86;28276;-76
2021/01/31 11:01:24;;;;;;;15.50;8.90;;;;;;;-0.30;79.39;99986.63;1603601;87;21192;-76
2021/01/31 11:03:50;;;;;;;17.82;8.90;;;;;;;-0.28;79.37;99990.06;1598186;87;21681;-76
2021/01/31 11:06:20;;;;;;;20.60;9.13;;;;;;;-0.25;79.35;99987.57;1600015;87;21252;-76
2021/01/31 11:08:46;;;;;;;13.05;7.85;;;;;;;-0.22;79.46;99988.89;1596463;88;21252;-76
2021/01/31 11:11:13;;;;;;;14.13;7.83;;;;;;;-0.20;79.32;99987.23;1597683;86;21268;-76
2021/01/31 11:13:39;;;;;;;16.67;8.45;;;;;;;-0.20;79.30;99980.03;1601427;87;21213;-76
2021/01/31 11:16:06;;;;;;;12.85;7.55;;;;;;;-0.22;79.32;99978.73;1592724;87;22123;-73
2021/01/31 11:18:32;;;;;;;;;;;;;;;-0.21;79.32;99979.17;1626286;87;21235;-72
2021/01/31 11:20:58;;;;;;;17.77;9.53;;;;;;;-0.20;79.19;99987.66;1632071;86;20522;-72
2021/01/31 11:23:25;;;;;;;16.87;8.60;;;;;;;-0.20;79.31;99978.34;1596924;88;21237;-72
2021/01/31 11:25:51;;;;;;;15.23;8.38;;;;;;;-0.18;79.22;99977.95;1597554;88;21196;-72
2021/01/31 11:28:18;;;;;;;14.83;8.63;;;;;;;-0.16;79.32;99983.06;1632511;86;27062;-72
2021/01/31 11:30:45;;;;;;;16.77;10.20;;;;;;;-0.08;79.48;99977.28;1636289;86;26801;-73
2021/01/31 11:33:12;;;;;;;15.40;8.50;;;;;;;-0.02;79.38;99971.03;1600066;87;21207;-73
2021/01/31 11:35:39;;;;;;;16.27;7.97;;;;;;;0.04;79.32;99974.47;1598704;88;21249;-73
2021/01/31 11:38:06;;;;;;;11.48;7.83;;;;;;;0.11;79.39;99972.47;1594384;88;21212;-73
2021/01/31 11:40:33;;;;;;;15.72;8.68;;;;;;;0.14;79.23;99967.02;1592343;88;21584;-73
2021/01/31 11:42:59;;;;;;;16.75;8.50;;;;;;;0.15;79.20;99966.59;1591420;88;21216;-73
2021/01/31 11:45:28;;;;;;;18.17;9.23;;;;;;;0.15;79.25;99975.50;1577630;89;21225;-73
2021/01/31 11:47:55;;;;;;;16.82;9.60;;;;;;;0.17;79.22;99973.84;1601223;88;21248;-72
2021/01/31 11:50:22;;;;;;;16.23;8.98;;;;;;;0.21;79.28;99963.73;1600646;88;21646;-72
2021/01/31 11:52:48;;;;;;;18.80;9.38;;;;;;;0.22;79.08;99967.13;1598411;88;22440;-72
2021/01/31 11:55:16;;;;;;;18.15;10.03;;;;;;;0.17;79.00;99959.85;1582659;89;21712;-72
2021/01/31 11:57:42;;;;;;;18.23;10.13;;;;;;;0.09;78.91;99961.42;1585800;89;21577;-73
2021/01/31 12:00:13;;;;;;;14.95;9.30;;;;;;;0.00;78.92;99974.42;1572137;89;21525;-73
2021/01/31 12:02:39;;;;;;;15.58;9.08;;;;;;;-0.07;78.84;99966.70;1575297;89;22322;-73
2021/01/31 12:05:13;;;;;;;20.02;10.53;;;;;;;-0.16;78.86;99955.97;1582133;89;21275;-73
2021/01/31 12:07:40;;;;;;;19.92;10.28;;;;;;;-0.19;78.99;99954.65;1585000;89;21310;-73